Fall River Mills Past Weather

Last 30 Days

 
High: 83ºf @2:54 PM    Low: 51ºf @6:54 AM     Approx. Precipitation / Rain Total: in.
Time (PDT)Temp. (ºf)Humidity (%)Dew Point (ºf)Barometer (inHG)Wind Speed (mph)Wind DirectionWind Gust (mph)1hr. Precip / Rain Total (in.)Snow Depth
6:54 PM793145.76-3.48ese7.82--
5:54 PM812945.72-2.61sse9.56--
4:54 PM822946.58-4.34se13.9--
3:54 PM822946.58-4.34se12.17--
2:54 PM832543.52-4.34se13.03--
1:54 PM793145.76-5.21se11.3--
12:54 PM793246.6-4.34se10.43--
11:54 AM783548.11-4.34se11.3--
10:54 AM763949.24-4.34se9.56--
9:54 AM744148.79-4.34se9.56--
8:54 AM715754.99-0.87sw2.61--
7:54 AM637354.2---3.48--
6:54 AM519449.33---2.61--
5:54 AM529350.04-0.87ne2.61--
4:54 AM539150.44---2.61--
3:54 AM558751.2---2.61--
2:54 AM568752.18-0.87nne2.61--
1:54 AM588152.2---2.61--
12:54 AM617553.02---2.61--
High: 89ºf @1:54 PM    Low: 55ºf @6:54 AM     Approx. Precipitation / Rain Total: in.
Time (PDT)Temp. (ºf)Humidity (%)Dew Point (ºf)Barometer (inHG)Wind Speed (mph)Wind DirectionWind Gust (mph)1hr. Precip / Rain Total (in.)Snow Depth
11:54 PM646652.41---5.21--
10:54 PM714749.74-2.61ese7.82--
9:54 PM734650.98-3.48e7.82--
8:54 PM754451.59-2.61ese7.82--
7:54 PM794052.59-5.21se13.9--
6:54 PM813752.25-5.21se13.03--
5:54 PM823652.38-5.21se12.17--
4:54 PM853453.45-4.34se12.17--
3:54 PM873253.54-6.08se14.77--
2:54 PM883052.64-6.08se13.03--
1:54 PM892952.57-4.34se12.17--
12:54 PM863050.92-6.08se14.77--
10:54 AM833955.46-2.61se8.69--
9:54 AM784051.7---4.34--
8:54 AM754250.33---1.74--
7:54 AM646451.57---2.61--
6:54 AM557346.5-1.74nne3.48--
5:54 AM556844.63-2.61ne4.34--
4:54 AM576344.53-0.87nne3.48--
3:54 AM566644.8-0.87nnw3.48--
2:54 AM586345.47-0.87n3.48--
1:54 AM615544.71-2.61nne4.34--
12:54 AM644843.91-2.61ne4.34--
High: 93ºf @1:54 PM    Low: 56ºf @5:54 AM     Approx. Precipitation / Rain Total: in.
Time (PDT)Temp. (ºf)Humidity (%)Dew Point (ºf)Barometer (inHG)Wind Speed (mph)Wind DirectionWind Gust (mph)1hr. Precip / Rain Total (in.)Snow Depth
11:54 PM674544.95-0.87ne3.48--
10:54 PM704044.56---4.34--
9:54 PM763143.16-2.61e5.21--
7:54 PM852747.24-1.74nw8.69--
6:54 PM892346.35-1.74nw7.82--
5:54 PM892346.35-1.74wnw10.43--
4:54 PM892447.48-1.74w8.69--
3:54 PM922247.66-2.61nw6.95--
2:54 PM932045.95-2.61wnw8.69--
1:54 PM932045.95-0.87nw6.95--
12:54 PM902347.18-0.87w6.95--
11:54 AM882446.65-0.87wnw5.21--
10:54 AM832745.54-1.74nw6.08--
9:54 AM793145.76-1.74nnw5.21--
8:54 AM753646.22-0.87nnw4.34--
7:54 AM645447.02-1.74ene3.48--
6:54 AM566142.74-1.74ne4.34--
5:54 AM566343.58-2.61ne3.48--
4:54 AM576344.53-2.61ne4.34--
3:54 AM576444.94-1.74ne4.34--
2:54 AM605945.63-2.61ne4.34--
1:54 AM635847.99-0.87ne2.61--
12:54 AM704346.46---9.56--
High: 90ºf @2:54 PM    Low: 56ºf @6:54 AM     Approx. Precipitation / Rain Total: in.
Time (PDT)Temp. (ºf)Humidity (%)Dew Point (ºf)Barometer (inHG)Wind Speed (mph)Wind DirectionWind Gust (mph)1hr. Precip / Rain Total (in.)Snow Depth
11:54 PM743645.34-2.61nne9.56--
10:54 PM753243.12-2.61n7.82--
9:54 PM782943.15-4.34nne9.56--
8:54 PM792944.01-1.74nnw7.82--
7:54 PM822441.62-1.74nw6.08--
6:54 PM872041.05-1.74nw10.43--
5:54 PM881940.54-2.61nnw9.56--
4:54 PM892042.68-2.61n10.43--
3:54 PM882446.65-4.34nw13.03--
2:54 PM902448.32-3.48nw10.43--
1:54 PM883052.64-2.61nw11.3--
12:54 PM853150.94-3.48nw9.56--
11:54 AM823853.86-3.48wnw8.69--
10:54 AM784253.03-1.74wnw8.69--
9:54 AM734852.13-2.61nw10.43--
8:54 AM705452.58-1.74wnw5.21--
7:54 AM666051.71-0.87nw5.21--
6:54 AM567849.24---4.34--
5:54 AM597049.23---6.95--
4:54 AM596948.84-0.87nw3.48--
3:54 AM606548.2---6.08--
2:54 AM606548.2---2.61--
1:54 AM635747.52---3.48--
12:54 AM675047.74-0.87ene6.95--
High: 88ºf @2:54 PM    Low: 53ºf @6:54 AM     Approx. Precipitation / Rain Total: in.
Time (PDT)Temp. (ºf)Humidity (%)Dew Point (ºf)Barometer (inHG)Wind Speed (mph)Wind DirectionWind Gust (mph)1hr. Precip / Rain Total (in.)Snow Depth
11:54 PM714246.74-1.74nnw7.82--
9:54 PM743443.84-1.74nnw9.56--
8:54 PM763143.16-1.74nw8.69--
7:54 PM812440.78-2.61nnw9.56--
6:54 PM842241.04-2.61nw7.82--
5:54 PM862444.97-2.61nw9.56--
4:54 PM872344.69-2.61wnw9.56--
3:54 PM872344.69-1.74nw10.43--
2:54 PM882244.35-2.61wnw9.56--
1:54 PM862647.09-2.61wnw9.56--
12:54 PM833048.34-3.48nw10.43--
11:54 AM803449.09-2.61nw8.69--
10:54 AM753847.65-3.48nw9.56--
9:54 AM724348.27-3.48nw10.43--
8:54 AM684646.44-3.48nw7.82--
7:54 AM655246.94---2.61--
6:54 AM537043.48---2.61--
5:54 AM546442.1---6.08--
4:54 AM536541.55-0.87ene4.34--
3:54 AM575842.37---5.21--
1:54 AM605242.32---7.82--
12:54 AM644139.82-1.74nnw6.95--
High: 80ºf @5:54 PM    Low: 51ºf @5:54 AM     Approx. Precipitation / Rain Total: in.
Time (PDT)Temp. (ºf)Humidity (%)Dew Point (ºf)Barometer (inHG)Wind Speed (mph)Wind DirectionWind Gust (mph)1hr. Precip / Rain Total (in.)Snow Depth
11:54 PM683539.32-3.48n10.43--
10:54 PM663134.49-1.74nne9.56--
8:54 PM712331.33-1.74n6.95--
7:54 PM752738.74-1.74nnw7.82--
6:54 PM792236.89-3.48nw9.56--
5:54 PM802541-3.48nw9.56--
4:54 PM802843.94-3.48nw9.56--
3:54 PM802843.94-2.61nw10.43--
2:54 PM792944.01-4.34nw12.17--
1:54 PM783447.34-3.48wnw13.9--
12:54 PM754049.02-2.61wnw10.43--
11:54 AM724549.48-2.61nw10.43--
10:54 AM695049.58-2.61nnw9.56--
9:54 AM645748.46-3.48nnw10.43--
8:54 AM606347.37-2.61nw10.43--
7:54 AM586847.5-0.87nw6.08--
6:54 AM518245.7-1.74nw8.69--
5:54 AM518245.7-0.87nnw5.21--
4:54 AM527745.02-1.74nw6.95--
3:54 AM537444.94-1.74nnw13.03--
2:54 AM547345.54-2.61n7.82--
1:54 AM557246.14-0.87n6.08--
12:54 AM577047.31-0.87nw7.82--
High: 80ºf @2:54 PM    Low: 51ºf @5:54 AM     Approx. Precipitation / Rain Total: in.
Time (PDT)Temp. (ºf)Humidity (%)Dew Point (ºf)Barometer (inHG)Wind Speed (mph)Wind DirectionWind Gust (mph)1hr. Precip / Rain Total (in.)Snow Depth
11:54 PM596647.66-2.61nnw11.3--
10:54 PM616448.73-3.48nw16.51--
9:54 PM645949.38-5.21nw13.03--
6:54 PM744350.07-3.48nw9.56--
5:54 PM754250.33-2.61nw9.56--
4:54 PM754250.33-2.61wnw10.43--
3:54 PM774050.81-2.61nw12.17--
2:54 PM803650.62-3.48wnw11.3--
1:54 PM793750.48-2.61nnw10.43--
12:54 PM773849.43-3.48wnw10.43--
11:54 AM754149.69-4.34nw11.3--
10:54 AM734751.56-3.48nw10.43--
9:54 AM705854.53-3.48n9.56--
8:54 AM656854.17-3.48nw11.3--
7:54 AM637655.31-1.74n7.82--
6:54 AM529550.61---3.48--
5:54 AM519248.76-0.87ene2.61--
4:54 AM529149.45-1.74ne2.61--
3:54 AM539150.44-0.87ne2.61--
2:54 AM529049.16---1.74--
1:54 AM538749.23---1.74--
12:54 AM558349.93-0.87ne3.48--
High: 84ºf @12:54 PM    Low: 54ºf @6:54 AM     Approx. Precipitation / Rain Total: in.
Time (PDT)Temp. (ºf)Humidity (%)Dew Point (ºf)Barometer (inHG)Wind Speed (mph)Wind DirectionWind Gust (mph)1hr. Precip / Rain Total (in.)Snow Depth
11:54 PM578050.89-0.87nne3.48--
10:54 PM607250.94-1.74ene4.34--
9:54 PM636852.27---4.34--
8:54 PM666553.89---5.21--
7:54 PM696054.53-2.61nw8.69--
6:54 PM774151.48-2.61se9.56--
5:54 PM754451.59-3.48ese8.69--
4:54 PM764150.58-4.34ese11.3--
3:54 PM793750.48-4.34se13.9--
2:54 PM843049.2-4.34sse15.64--
12:54 PM843452.58-3.48se11.3--
11:54 AM813550.74-4.34se10.43--
10:54 AM794153.26-4.34se9.56--
9:54 AM764754.29-0.87s4.34--
8:54 AM725554.94---2.61--
7:54 AM646953.62-0.87ene2.61--
6:54 AM548750.22-0.87n2.61--
5:54 AM558349.93-0.87ne3.48--
4:54 AM558349.93---3.48--
3:54 AM577850.21---3.48--
2:54 AM587650.48---3.48--
1:54 AM616749.96-1.74ne3.48--
12:54 AM626349.26-0.87ne4.34--
High: 91ºf @2:54 PM    Low: 55ºf @6:54 AM     Approx. Precipitation / Rain Total: in.
Time (PDT)Temp. (ºf)Humidity (%)Dew Point (ºf)Barometer (inHG)Wind Speed (mph)Wind DirectionWind Gust (mph)1hr. Precip / Rain Total (in.)Snow Depth
11:54 PM655849.86-0.87ese4.34--
10:54 PM675550.29-0.87ene4.34--
9:54 PM695351.15-0.87ne3.48--
8:54 PM754250.33-1.74ne6.95--
7:54 PM822946.58-3.48se8.69--
6:54 PM862444.97-4.34se8.69--
5:54 PM872041.05-0.87se9.56--
4:54 PM882041.87-0.87wsw8.69--
3:54 PM891535.32-2.61sse8.69--
2:54 PM911740.1-2.61sse10.43--
1:54 PM901739.3-4.34se10.43--
11:54 AM862748.09-1.74s6.08--
10:54 AM823652.38-0.87sse4.34--
9:54 AM784454.3-0.87nw4.34--
8:54 AM735053.25-0.87w5.21--
7:54 AM655950.32-0.87ene4.34--
6:54 AM557045.4-2.61ne4.34--
5:54 AM567046.35-1.74ne3.48--
4:54 AM587048.27---2.61--
2:54 AM616247.88-0.87ene3.48--
1:54 AM645647.98---6.08--
High: 88ºf @1:54 PM    Low: 56ºf @6:54 AM     Approx. Precipitation / Rain Total: in.
Time (PDT)Temp. (ºf)Humidity (%)Dew Point (ºf)Barometer (inHG)Wind Speed (mph)Wind DirectionWind Gust (mph)1hr. Precip / Rain Total (in.)Snow Depth
10:54 PM723744.29-2.61nnw7.82--
9:54 PM743544.6-0.87wnw9.56--
8:54 PM753646.22-2.61wnw8.69--
7:54 PM774554.01-0.87ne2.61--
6:54 PM852444.14-0.87ssw6.95--
5:54 PM862444.97-0.87ssw6.08--
4:54 PM862444.97-1.74sw5.21--
3:54 PM872243.52-1.74se9.56--
2:54 PM882345.52-0.87w6.08--
1:54 PM882446.65-1.74n6.08--
12:54 PM852848.21-0.87sw5.21--
11:54 AM823249.2-1.74wnw7.82--
10:54 AM784152.37-2.61nw6.95--
9:54 AM734751.56-1.74wnw8.69--
8:54 AM705251.55-2.61nw8.69--
7:54 AM675952.19-0.87nw4.34--
6:54 AM567949.58---2.61--
5:54 AM577448.79-0.87ne2.61--
4:54 AM596647.66-0.87ne2.61--
3:54 AM596948.84---2.61--
2:54 AM645547.5-0.87nw7.82--
1:54 AM684545.86-2.61nw9.56--
12:54 AM684445.26-1.74nw7.82--
High: 90ºf @1:54 PM    Low: 53ºf @6:54 AM     Approx. Precipitation / Rain Total: in.
Time (PDT)Temp. (ºf)Humidity (%)Dew Point (ºf)Barometer (inHG)Wind Speed (mph)Wind DirectionWind Gust (mph)1hr. Precip / Rain Total (in.)Snow Depth
11:54 PM694144.31-1.74nw8.69--
8:54 PM762941.43-0.87nw7.82--
7:54 PM802541-1.74nnw7.82--
6:54 PM822744.69---4.34--
4:54 PM882244.35-3.48se8.69--
3:54 PM882345.52-3.48s7.82--
2:54 PM892346.35-1.74sw6.08--
1:54 PM902650.47-0.87nw6.08--
12:54 PM872647.93-0.87nnw6.95--
11:54 AM822946.58-2.61nw8.69--
10:54 AM793347.42-2.61wnw10.43--
9:54 AM763747.83-2.61nw7.82--
8:54 AM724549.48-2.61nw6.95--
7:54 AM645848.92-0.87e4.34--
6:54 AM537244.22-1.74ne4.34--
5:54 AM537143.85-2.61ne4.34--
4:54 AM556443.05-2.61ne4.34--
2:54 AM575942.81-2.61ne4.34--
1:54 AM595844.24-2.61ne4.34--
12:54 AM635245.09-1.74ne4.34--
High: 90ºf @2:54 PM    Low: 52ºf @4:54 AM     Approx. Precipitation / Rain Total: in.
Time (PDT)Temp. (ºf)Humidity (%)Dew Point (ºf)Barometer (inHG)Wind Speed (mph)Wind DirectionWind Gust (mph)1hr. Precip / Rain Total (in.)Snow Depth
11:54 PM654844.83-1.74ese3.48--
10:54 PM654945.37-0.87sse4.34--
9:54 PM674746.1-1.74ne3.48--
8:54 PM724046.34-0.87nne6.08--
7:54 PM822340.52-4.34ese9.56--
6:54 PM862242.7-5.21se11.3--
4:54 PM882244.35-6.08se12.17--
3:54 PM892143.96-3.48se9.56--
2:54 PM902043.5-3.48se15.64--
1:54 PM892042.68-2.61sse10.43--
12:54 PM862343.86-4.34se11.3--
11:54 AM852444.14-3.48se7.82--
10:54 AM813449.96-0.87w2.61--
9:54 AM773345.67-0.87wsw3.48--
8:54 AM714749.74---2.61--
7:54 AM635647.05---2.61--
6:54 AM526741.39-0.87n3.48--
5:54 AM526239.39-0.87nne4.34--
4:54 AM526138.97-1.74nne3.48--
3:54 AM535939.06-1.74nne3.48--
2:54 AM555639.59-2.61ne4.34--
12:54 AM584838.42-1.74nne4.34--
High: 88ºf @2:54 PM    Low: 49ºf @5:54 AM     Approx. Precipitation / Rain Total: in.
Time (PDT)Temp. (ºf)Humidity (%)Dew Point (ºf)Barometer (inHG)Wind Speed (mph)Wind DirectionWind Gust (mph)1hr. Precip / Rain Total (in.)Snow Depth
11:54 PM614137.13-1.74ne5.21--
10:54 PM624238.64-1.74ene4.34--
8:54 PM703541.08-1.74ne5.21--
7:54 PM811833.48-2.61se6.95--
6:54 PM851532.16-2.61se9.56--
5:54 PM861125.37-2.61se10.43--
4:54 PM871023.85-5.21ese10.43--
3:54 PM87818.59-5.21se12.17--
2:54 PM881432.81-5.21ese11.3--
1:54 PM881636.16-3.48se11.3--
12:54 PM861938.91-4.34se13.9--
11:54 AM851938.1-4.34se10.43--
10:54 AM832543.52-2.61sse8.69--
9:54 AM802944.86-4.34se7.82--
8:54 AM734449.78---2.61--
7:54 AM655548.43---4.34--
6:54 AM507341.69-1.74ne3.48--
5:54 AM497441.08-1.74ne3.48--
4:54 AM507140.97-0.87ne2.61--
3:54 AM516439.26-1.74ne4.34--
2:54 AM526239.39-1.74ne3.48--
1:54 AM535436.8-2.61ne4.34--
12:54 AM545538.2-1.74ne4.34--
High: 89ºf @1:54 PM    Low: 47ºf @5:54 AM     Approx. Precipitation / Rain Total: in.
Time (PDT)Temp. (ºf)Humidity (%)Dew Point (ºf)Barometer (inHG)Wind Speed (mph)Wind DirectionWind Gust (mph)1hr. Precip / Rain Total (in.)Snow Depth
11:54 PM565339.11-0.87ne3.48--
10:54 PM604940.78-1.74ne3.48--
9:54 PM644642.8---3.48--
8:54 PM723139.7-2.61ene6.08--
7:54 PM801934.02-1.74se6.95--
6:54 PM841632.96-2.61se7.82--
5:54 PM851836.72-1.74s6.95--
4:54 PM861837.53-1.74s10.43--
3:54 PM871838.34-2.61ssw13.03--
2:54 PM891941.35-2.61sse9.56--
1:54 PM891941.35-2.61s12.17--
12:54 PM881940.54-3.48se10.43--
10:54 AM842038.59-4.34se9.56--
9:54 AM812238.55-4.34se9.56--
8:54 AM734349.17---1.74--
7:54 AM645044.98---3.48--
6:54 AM486837.95-0.87nne3.48--
5:54 AM476736.62-0.87ne4.34--
4:54 AM485934.36-0.87ne4.34--
3:54 AM505333.55-1.74ne4.34--
2:54 AM515334.48-0.87nne3.48--
1:54 AM534934.36-2.61ne4.34--
12:54 AM545236.78-0.87nnw3.48--
High: 91ºf @2:54 PM    Low: 54ºf @6:54 AM     Approx. Precipitation / Rain Total: in.
Time (PDT)Temp. (ºf)Humidity (%)Dew Point (ºf)Barometer (inHG)Wind Speed (mph)Wind DirectionWind Gust (mph)1hr. Precip / Rain Total (in.)Snow Depth
11:54 PM574938.03-2.61ne3.48--
10:54 PM605041.3-0.87ne3.48--
9:54 PM644743.36-0.87ene2.61--
8:54 PM713642.69---6.08--
7:54 PM822036.95-2.61se8.69--
6:54 PM861938.91-2.61se9.56--
5:54 PM861736.09-2.61se7.82--
4:54 PM871635.36-2.61sse11.3--
3:54 PM881737.69-3.48sse12.17--
2:54 PM911740.1-1.74ssw10.43--
1:54 PM892143.96-3.48se10.43--
12:54 PM882143.14-3.48sse13.03--
11:54 AM852444.14-5.21se13.9--
10:54 AM832543.52-6.08se12.17--
9:54 AM813349.16-3.48se8.69--
8:54 AM755658.22---1.74--
6:54 AM548449.27-1.74ne4.34--
4:54 AM558149.28-1.74ne3.48--
3:54 AM558349.93---3.48--
2:54 AM577549.15-2.61ne3.48--
12:54 AM607351.32-0.87ne3.48--
High: 91ºf @2:54 PM    Low: 52ºf @5:54 AM     Approx. Precipitation / Rain Total: in.
Time (PDT)Temp. (ºf)Humidity (%)Dew Point (ºf)Barometer (inHG)Wind Speed (mph)Wind DirectionWind Gust (mph)1hr. Precip / Rain Total (in.)Snow Depth
11:54 PM626951.71-0.87ene2.61--
10:54 PM656452.52-0.87ene3.48--
9:54 PM686154.04-1.74ene4.34--
8:54 PM725755.92-1.74ne5.21--
7:54 PM824155.95-0.87ene5.21--
6:54 PM862849.06-1.74se6.95--
5:54 PM882749.79-2.61se8.69--
4:54 PM892649.62-2.61se10.43--
3:54 PM902751.49-3.48sse7.82--
2:54 PM912550.25-1.74sse7.82--
1:54 PM902751.49-2.61se7.82--
12:54 PM883153.53-1.74sw6.08--
11:54 AM853957.23-0.87w3.48--
10:54 AM824256.61-0.87nnw2.61--
9:54 AM766161.56---1.74--
8:54 AM697962.21---1.74--
7:54 AM609157.36---2.61--
6:54 AM529851.45---3.48--
5:54 AM529851.45-0.87nnw2.61--
4:54 AM539852.45-0.87n3.48--
3:54 AM549753.17-0.87nnw4.34--
2:54 AM559754.16-0.87nnw3.48--
1:54 AM569755.16-0.87ene3.48--
12:54 AM589757.15-0.87nw3.48--
High: 95ºf @1:54 PM    Low: 60ºf @6:54 AM     Approx. Precipitation / Rain Total: in.
Time (PDT)Temp. (ºf)Humidity (%)Dew Point (ºf)Barometer (inHG)Wind Speed (mph)Wind DirectionWind Gust (mph)1hr. Precip / Rain Total (in.)Snow Depth
9:54 PM629560.55---6.08--
8:54 PM649161.32-1.74e6.08--
7:54 PM696355.87-0.87s10.43--
6:54 PM803549.86-0.87w12.17--
5:54 PM842645.4-3.48se8.69--
4:54 PM853755.78-0.87wnw5.21--
3:54 PM872849.92-0.87nne8.69--
2:54 PM892649.62-3.48nnw10.43--
1:54 PM952351.34---5.21--
12:54 PM942350.51---4.34--
11:54 AM883355.25-1.74nw6.08--
10:54 AM834358.17-0.87wnw4.34--
9:54 AM795058.75-0.87wnw2.61--
8:54 AM716458.2---1.74--
7:54 AM637554.95---3.48--
6:54 AM606949.8-0.87n3.48--
4:54 AM606246.94---3.48--
3:54 AM626148.39---3.48--
2:54 AM645447.02-1.74ne4.34--
1:54 AM675248.79-0.87ne5.21--
High: 96ºf @2:54 PM    Low: 52ºf @5:54 AM     Approx. Precipitation / Rain Total: in.
Time (PDT)Temp. (ºf)Humidity (%)Dew Point (ºf)Barometer (inHG)Wind Speed (mph)Wind DirectionWind Gust (mph)1hr. Precip / Rain Total (in.)Snow Depth
11:54 PM724147-2.61nne6.95--
10:54 PM724549.48-1.74ne6.08--
9:54 PM734349.17-0.87n5.21--
8:54 PM754149.69-0.87nne9.56--
7:54 PM832644.55-3.48ese8.69--
6:54 PM842342.19-0.87ne17.38--
5:54 PM872344.69-5.21ese15.64--
4:54 PM951641.73-3.48se9.56--
3:54 PM951946.23-1.74wsw8.69--
2:54 PM962149.71-0.87w6.08--
1:54 PM952452.49-0.87wnw5.21--
12:54 PM922348.85-0.87wsw5.21--
11:54 AM893053.5-1.74wnw5.21--
10:54 AM853251.8-0.87nw5.21--
9:54 AM813550.74-0.87n3.48--
8:54 AM754954.53---2.61--
7:54 AM646652.41---3.48--
6:54 AM538047---2.61--
5:54 AM528246.68---2.61--
4:54 AM547646.61-1.74nne3.48--
3:54 AM557547.22-2.61nne3.48--
2:54 AM557547.22---3.48--
1:54 AM577147.69-0.87ne3.48--
12:54 AM606447.78-0.87ne2.61--
High: 89ºf @3:54 PM    Low: 52ºf @5:54 AM     Approx. Precipitation / Rain Total: in.
Time (PDT)Temp. (ºf)Humidity (%)Dew Point (ºf)Barometer (inHG)Wind Speed (mph)Wind DirectionWind Gust (mph)1hr. Precip / Rain Total (in.)Snow Depth
11:54 PM636149.33---3.48--
10:54 PM655950.32---2.61--
9:54 PM695552.15-0.87n2.61--
8:54 PM773950.13-0.87ne6.08--
7:54 PM833048.34-4.34ese7.82--
6:54 PM872647.93-1.74se7.82--
5:54 PM872647.93-1.74s9.56--
4:54 PM882345.52-1.74sse11.3--
3:54 PM892346.35-2.61sse10.43--
2:54 PM892346.35-3.48se13.03--
1:54 PM882648.78-4.34se11.3--
12:54 PM862546.05-4.34se9.56--
11:54 AM862748.09-1.74sse5.21--
10:54 AM803449.09-0.87wsw3.48--
9:54 AM773345.67---4.34--
8:54 AM723945.67-0.87nw4.34--
7:54 AM655849.86---3.48--
6:54 AM537745.98-2.61ne4.34--
5:54 AM527644.67-1.74nne4.34--
4:54 AM537545.29-2.61ne5.21--
3:54 AM547345.54-1.74ne4.34--
1:54 AM576444.94-1.74ne4.34--
12:54 AM596145.57-1.74ene4.34--
High: 88ºf @2:54 PM    Low: 52ºf @5:54 AM     Approx. Precipitation / Rain Total: in.
Time (PDT)Temp. (ºf)Humidity (%)Dew Point (ºf)Barometer (inHG)Wind Speed (mph)Wind DirectionWind Gust (mph)1hr. Precip / Rain Total (in.)Snow Depth
11:54 PM616047.01-0.87ne3.48--
10:54 PM664845.74-2.61ene4.34--
9:54 PM704044.56-0.87ene4.34--
8:54 PM743846.77-0.87nw6.95--
7:54 PM803852.09-1.74ne3.48--
6:54 PM863353.51---3.48--
5:54 PM853150.94-0.87sw6.08--
4:54 PM862748.09-1.74sw5.21--
3:54 PM872748.94-2.61ese7.82--
2:54 PM882648.78-2.61se10.43--
1:54 PM862849.06-4.34e8.69--
12:54 PM863151.81-0.87sw5.21--
11:54 AM823551.62-1.74nnw5.21--
10:54 AM774050.81-1.74wnw6.08--
9:54 AM734550.39-1.74nw6.95--
8:54 AM695049.58-1.74wnw5.21--
7:54 AM656050.77-0.87wnw3.48--
5:54 AM528046.02-0.87ene4.34--
4:54 AM537645.64-2.61ne3.48--
3:54 AM567046.35---3.48--
2:54 AM576746.15---4.34--
1:54 AM625244.17-0.87nne5.21--
12:54 AM644743.36-1.74ne6.95--
High: 87ºf @2:54 PM    Low: 51ºf @4:54 AM     Approx. Precipitation / Rain Total: in.
Time (PDT)Temp. (ºf)Humidity (%)Dew Point (ºf)Barometer (inHG)Wind Speed (mph)Wind DirectionWind Gust (mph)1hr. Precip / Rain Total (in.)Snow Depth
11:54 PM664443.46-2.61n9.56--
10:54 PM684143.41-1.74n8.69--
9:54 PM704044.56-2.61nw8.69--
8:54 PM724147-2.61nw6.95--
7:54 PM753948.35-1.74nw7.82--
6:54 PM775861.07---3.48--
5:54 PM824558.53---5.21--
4:54 PM844057.05-0.87ssw6.08--
3:54 PM833653.26-0.87sw7.82--
2:54 PM873455.2-0.87w7.82--
1:54 PM843855.63-2.61w10.43--
12:54 PM833854.74-3.48nw9.56--
11:54 AM804657.34-2.61nw7.82--
10:54 AM775559.58-2.61wnw7.82--
9:54 AM736259.2-2.61nw8.69--
8:54 AM687057.84-2.61nw6.95--
7:54 AM569354---2.61--
6:54 AM539651.89-0.87nne3.48--
5:54 AM519750.18-0.87nne2.61--
4:54 AM519649.9-0.87ne3.48--
3:54 AM529450.33-1.74ne3.48--
2:54 AM539651.89-0.87nnw3.48--
1:54 AM549552.6-0.87ne3.48--
12:54 AM559453.3-0.87e3.48--
High: 88ºf @1:54 PM    Low: 57ºf @11:54 PM     Approx. Precipitation / Rain Total: in.
Time (PDT)Temp. (ºf)Humidity (%)Dew Point (ºf)Barometer (inHG)Wind Speed (mph)Wind DirectionWind Gust (mph)1hr. Precip / Rain Total (in.)Snow Depth
11:54 PM579555.58-0.87ene4.34--
10:54 PM589456.28-0.87n6.08--
9:54 PM599657.86-0.87n2.61--
8:54 PM618757.1-0.87w10.43--
7:54 PM619258.66-1.74nnw18.25--
6:54 PM754552.2-2.61e7.82--
5:54 PM793548.99-1.74s13.03--
4:54 PM822845.65-6.08se13.03--
3:54 PM862849.06-6.08se13.9--
2:54 PM873253.54-4.34se12.17--
1:54 PM883758.42-4.34ese12.17--
12:54 PM863958.12-0.87s6.95--
11:54 AM834358.17-0.87w6.08--
10:54 AM815060.58-0.87sw4.34--
9:54 AM765759.65-0.87sw2.61--
8:54 AM726358.7---2.61--
7:54 AM657054.97---3.48--
6:54 AM588252.53-0.87n3.48--
5:54 AM588051.86-1.74ne3.48--
3:54 AM607652.41-1.74ne3.48--
2:54 AM637755.67-0.87ene2.61--
1:54 AM686555.79---10.43--
12:54 AM705854.53-3.48ese6.95--
High: 98ºf @1:54 PM    Low: 56ºf @5:54 AM     Approx. Precipitation / Rain Total: in.
Time (PDT)Temp. (ºf)Humidity (%)Dew Point (ºf)Barometer (inHG)Wind Speed (mph)Wind DirectionWind Gust (mph)1hr. Precip / Rain Total (in.)Snow Depth
11:54 PM677157.28---3.48--
10:54 PM716458.2---3.48--
8:54 PM785057.83-2.61e9.56--
7:54 PM814557.63-6.08ese14.77--
6:54 PM863555.12-6.08se15.64--
5:54 PM882951.72-6.08se13.03--
4:54 PM922348.85-4.34se10.43--
3:54 PM951844.8-3.48se9.56--
2:54 PM971744.9-2.61sse6.95--
1:54 PM981745.7-0.87sse6.08--
12:54 PM942046.77-1.74s6.08--
11:54 AM932754.03-0.87w4.34--
10:54 AM883052.64---3.48--
9:54 AM853856.51---3.48--
8:54 AM774855.79---2.61--
7:54 AM617653.38-1.74nne3.48--
6:54 AM577047.31-1.74n4.34--
5:54 AM567046.35-1.74nne4.34--
3:54 AM577047.31-0.87n3.48--
2:54 AM596748.06-1.74nne3.48--
1:54 AM626349.26-1.74ne4.34--
12:54 AM657556.88-1.74ne3.48--
High: 96ºf @2:54 PM    Low: 54ºf @5:54 AM     Approx. Precipitation / Rain Total: in.
Time (PDT)Temp. (ºf)Humidity (%)Dew Point (ºf)Barometer (inHG)Wind Speed (mph)Wind DirectionWind Gust (mph)1hr. Precip / Rain Total (in.)Snow Depth
11:54 PM696556.73-1.74ene5.21--
10:54 PM676554.84-0.87n3.48--
9:54 PM715051.41-2.61ne5.21--
8:54 PM775157.47-0.87nne3.48--
7:54 PM863353.51-1.74ene7.82--
6:54 PM922652.15-2.61ese6.95--
5:54 PM922348.85-2.61se8.69--
4:54 PM942249.31-1.74sse6.95--
3:54 PM951946.23-1.74ssw8.69--
2:54 PM962048.4-2.61se8.69--
1:54 PM942451.66-2.61s9.56--
12:54 PM932551.93-2.61sse6.95--
11:54 AM912853.32-1.74s8.69--
10:54 AM883153.53-2.61sse6.08--
9:54 AM834257.51-0.87ssw3.48--
8:54 AM775157.47---1.74--
7:54 AM676655.26-0.87n3.48--
6:54 AM568250.58-1.74ne3.48--
5:54 AM548348.95---3.48--
4:54 AM567949.58-0.87nne3.48--
3:54 AM577448.79-0.87n2.61--
2:54 AM597049.23-0.87nne3.48--
1:54 AM616749.96-0.87n3.48--
12:54 AM636249.77-0.87nne4.34--
High: 78ºf @7:54 PM    Low: 66ºf @11:54 PM     Approx. Precipitation / Rain Total: in.
Time (PDT)Temp. (ºf)Humidity (%)Dew Point (ºf)Barometer (inHG)Wind Speed (mph)Wind DirectionWind Gust (mph)1hr. Precip / Rain Total (in.)Snow Depth
11:54 PM665750.32-2.61ne4.34--
10:54 PM704949.95-2.61ene5.21--
9:54 PM734550.39-0.87n4.34--
8:54 PM755356.69-0.87ne4.34--
7:54 PM784957.27-0.87ne3.48--
Past Weather Disclaimer Note regarding "Approx. Precipitation / Rain Total"

Currently

Fair 53°F
30.07in
Barometer
72%
Humidity
North 0.0mph
Wind
Fair

Past Weather Nearby

More Local Information

Bookmark and Share

Go Ad Free - Become a Member